Time,TemperatureF,DewpointF,PressureIn,WindDirection,WindDirectionDegrees,WindSpeedMPH,WindSpeedGustMPH,Humidity,HourlyPrecipIn,Conditions,Clouds,dailyrainin,SoftwareType,DateUTC
2013-03-01 00:00:00,21.7,14.1,30.06,East,90,2.3,7.4,72,0.00,,SKC,0.00,VWS V14.01,2013-03-01 06:00:00,
2013-03-01 00:20:00,21.7,13.8,30.06,ESE,112,4.9,13.7,71,0.00,,SKC,0.00,VWS V14.01,2013-03-01 06:20:00,
2013-03-01 00:40:00,21.6,13.3,30.06,NE,45,3.6,14.9,70,0.00,,SKC,0.00,VWS V14.01,2013-03-01 06:40:00,
2013-03-01 01:00:00,21.6,13.6,30.09,ESE,112,2.6,12.9,71,0.00,,SKC,0.00,VWS V14.01,2013-03-01 07:00:00,
2013-03-01 01:20:00,21.4,13.4,30.09,ENE,68,3.1,14.1,71,0.00,,SKC,0.00,VWS V14.01,2013-03-01 07:20:00,
2013-03-01 01:40:00,21.2,13.6,30.09,SSW,202,4.9,16.4,72,0.00,,SKC,0.00,VWS V14.01,2013-03-01 07:40:00,
2013-03-01 02:00:00,21.2,13.9,30.09,NE,45,3.3,12.9,73,0.00,,SKC,0.00,VWS V14.01,2013-03-01 08:00:00,
2013-03-01 02:20:00,21.2,13.9,30.09,ENE,68,3.9,8.2,73,0.00,,SKC,0.00,VWS V14.01,2013-03-01 08:20:00,
2013-03-01 02:40:00,21.2,14.2,30.09,NNW,338,3.9,10.2,74,0.00,,SKC,0.00,VWS V14.01,2013-03-01 08:40:00,
2013-03-01 03:00:00,21.2,14.2,30.09,SSE,158,3.1,12.9,74,0.00,,SKC,0.00,VWS V14.01,2013-03-01 09:00:00,
2013-03-01 03:20:00,21.4,14.4,30.09,East,90,2.3,16.8,74,0.00,,SKC,0.00,VWS V14.01,2013-03-01 09:20:00,
2013-03-01 03:40:00,21.2,14.5,30.09,NE,45,1.8,12.9,75,0.00,,SKC,0.00,VWS V14.01,2013-03-01 09:40:00,
2013-03-01 04:00:00,21.2,14.5,30.09,ENE,68,4.4,9.4,75,0.00,,SKC,0.00,VWS V14.01,2013-03-01 10:00:00,
2013-03-01 04:20:00,21.2,14.5,30.09,NE,45,3.9,9.4,75,0.00,,SKC,0.00,VWS V14.01,2013-03-01 10:20:00,
2013-03-01 04:40:00,21.2,14.5,30.09,ENE,68,1.8,9.8,75,0.00,,SKC,0.00,VWS V14.01,2013-03-01 10:40:00,
2013-03-01 05:00:00,21.0,14.4,30.09,NE,45,4.6,11.4,75,0.00,,SKC,0.00,VWS V14.01,2013-03-01 11:00:00,
2013-03-01 05:20:00,21.0,14.1,30.12,NNE,22,3.3,14.1,74,0.00,,SKC,0.00,VWS V14.01,2013-03-01 11:20:00,
2013-03-01 05:40:00,20.8,13.6,30.12,ESE,112,3.3,13.3,73,0.00,,SKC,0.00,VWS V14.01,2013-03-01 11:40:00,
2013-03-01 06:20:00,20.5,13.2,30.15,ENE,68,4.1,12.5,73,0.00,,SKC,0.00,VWS V14.01,2013-03-01 12:20:00,
2013-03-01 06:40:00,20.3,13.0,30.12,ENE,68,2.8,11.4,73,0.00,,SKC,0.00,VWS V14.01,2013-03-01 12:40:00,
2013-03-01 07:00:00,20.3,13.4,30.12,ENE,68,0.0,12.5,74,0.00,,SKC,0.00,VWS V14.01,2013-03-01 13:00:00,
2013-03-01 07:20:00,20.5,13.5,30.15,NNE,22,5.4,9.8,74,0.00,,SKC,0.00,VWS V14.01,2013-03-01 13:20:00,
2013-03-01 07:40:00,20.7,13.7,30.15,ENE,68,4.4,12.9,74,0.00,,SKC,0.00,VWS V14.01,2013-03-01 13:40:00,
2013-03-01 08:00:00,21.0,13.7,30.15,NNW,338,2.8,8.6,73,0.00,,SKC,0.00,VWS V14.01,2013-03-01 14:00:00,
2013-03-01 08:20:00,21.2,13.9,30.15,NNE,22,3.1,10.6,73,0.00,,SKC,0.00,VWS V14.01,2013-03-01 14:20:00,
2013-03-01 08:40:00,21.4,13.8,30.15,NNE,22,3.3,10.2,72,0.00,,SKC,0.00,VWS V14.01,2013-03-01 14:40:00,
2013-03-01 09:00:00,21.4,13.1,30.15,East,90,1.3,11.0,70,0.00,,SKC,0.00,VWS V14.01,2013-03-01 15:00:00,
2013-03-01 09:20:00,21.6,12.6,30.18,ENE,68,3.9,9.8,68,0.00,,SKC,0.00,VWS V14.01,2013-03-01 15:20:00,
2013-03-01 09:40:00,22.1,13.2,30.18,ENE,68,3.6,12.9,68,0.00,,SKC,0.00,VWS V14.01,2013-03-01 15:40:00,
2013-03-01 10:00:00,23.0,13.7,30.18,NE,45,4.1,15.3,67,0.00,,SKC,0.00,VWS V14.01,2013-03-01 16:00:00,
2013-03-01 10:20:00,23.2,12.1,30.18,SSE,158,4.4,12.9,62,0.00,,SKC,0.00,VWS V14.01,2013-03-01 16:20:00,
2013-03-01 10:40:00,23.9,12.1,30.18,NNE,22,2.8,14.1,60,0.00,,SKC,0.00,VWS V14.01,2013-03-01 16:40:00,
2013-03-01 11:00:00,24.4,12.6,30.18,North,0,5.4,14.9,60,0.00,,SKC,0.00,VWS V14.01,2013-03-01 17:00:00,
2013-03-01 11:20:00,25.0,13.4,30.18,ENE,68,2.6,11.7,61,0.00,,SKC,0.00,VWS V14.01,2013-03-01 17:20:00,
2013-03-01 11:40:00,25.3,13.4,30.18,ENE,68,2.8,10.2,60,0.00,,SKC,0.00,VWS V14.01,2013-03-01 17:40:00,
2013-03-01 12:00:00,25.3,12.6,30.18,ENE,68,3.1,4.7,58,0.00,,SKC,0.00,VWS V14.01,2013-03-01 18:00:00,
2013-03-01 12:20:00,25.7,12.6,30.18,NNE,22,2.3,11.0,57,0.00,,SKC,0.00,VWS V14.01,2013-03-01 18:20:00,
2013-03-01 12:40:00,26.8,13.2,30.18,SSW,202,4.4,13.7,56,0.00,,SKC,0.00,VWS V14.01,2013-03-01 18:40:00,
2013-03-01 13:00:00,26.8,12.4,30.15,NNE,22,2.8,13.3,54,0.00,,SKC,0.00,VWS V14.01,2013-03-01 19:00:00,
2013-03-01 13:20:00,27.9,13.0,30.24,ESE,112,0.0,10.6,53,0.00,,SKC,0.00,VWS V14.01,2013-03-01 19:20:00,
2013-03-01 13:40:00,27.5,12.2,30.24,East,90,4.1,11.7,52,0.00,,SKC,0.00,VWS V14.01,2013-03-01 19:40:00,
2013-03-01 14:00:00,27.1,11.9,30.21,ESE,112,2.8,13.7,52,0.00,,SKC,0.00,VWS V14.01,2013-03-01 20:00:00,
2013-03-01 14:20:00,27.9,13.0,30.21,WNW,292,3.6,9.8,53,0.00,,SKC,0.00,VWS V14.01,2013-03-01 20:20:00,
2013-03-01 14:40:00,27.5,12.2,30.21,ENE,68,3.9,10.6,52,0.00,,SKC,0.00,VWS V14.01,2013-03-01 20:40:00,
2013-03-01 15:40:00,25.3,11.0,30.21,NNE,22,2.3,11.0,54,0.00,,SKC,0.00,VWS V14.01,2013-03-01 21:40:00,
2013-03-01 16:00:00,24.4,10.6,30.24,North,0,3.9,13.3,55,0.00,,SKC,0.00,VWS V14.01,2013-03-01 22:00:00,
2013-03-01 16:20:00,24.3,10.8,30.24,ENE,68,2.3,13.3,56,0.00,,SKC,0.00,VWS V14.01,2013-03-01 22:20:00,
2013-03-01 16:40:00,23.5,10.6,30.24,ESE,112,1.8,11.4,57,0.00,,SKC,0.00,VWS V14.01,2013-03-01 22:40:00,
2013-03-01 17:00:00,22.3,9.8,30.24,NNE,22,2.8,9.8,58,0.00,,SKC,0.00,VWS V14.01,2013-03-01 23:00:00,
2013-03-01 17:20:00,21.6,9.8,30.24,North,0,1.5,9.8,60,0.00,,SKC,0.00,VWS V14.01,2013-03-01 23:20:00,
2013-03-01 17:40:00,20.8,9.9,30.24,NE,45,2.8,11.4,62,0.00,,SKC,0.00,VWS V14.01,2013-03-01 23:40:00,
2013-03-01 18:00:00,20.1,9.9,30.24,North,0,3.1,17.2,64,0.00,,SKC,0.00,VWS V14.01,2013-03-02 00:00:00,
2013-03-01 18:20:00,19.6,9.7,30.24,NNE,22,3.6,11.0,65,0.00,,SKC,0.00,VWS V14.01,2013-03-02 00:20:00,
2013-03-01 18:40:00,19.2,9.4,30.24,NNE,22,3.1,9.4,65,0.00,,SKC,0.00,VWS V14.01,2013-03-02 00:40:00,
2013-03-01 19:00:00,18.7,9.6,30.24,NNE,22,3.3,10.6,67,0.00,,SKC,0.00,VWS V14.01,2013-03-02 01:00:00,
2013-03-01 19:20:00,18.1,9.0,30.24,ESE,112,1.0,11.4,67,0.00,,SKC,0.00,VWS V14.01,2013-03-02 01:20:00,
2013-03-01 19:40:00,18.0,8.9,30.24,ENE,68,2.3,7.4,67,0.00,,SKC,0.00,VWS V14.01,2013-03-02 01:40:00,
2013-03-01 20:00:00,17.1,8.7,30.24,NE,45,1.8,7.4,69,0.00,,SKC,0.00,VWS V14.01,2013-03-02 02:00:00,
2013-03-01 20:20:00,16.7,8.3,30.24,ENE,68,2.8,8.2,69,0.00,,SKC,0.00,VWS V14.01,2013-03-02 02:20:00,
2013-03-01 20:40:00,16.2,8.1,30.24,NE,45,1.8,6.7,70,0.00,,SKC,0.00,VWS V14.01,2013-03-02 02:40:00,
2013-03-01 21:00:00,15.6,7.6,30.24,NE,45,2.3,5.9,70,0.00,,SKC,0.00,VWS V14.01,2013-03-02 03:00:00,
2013-03-01 21:20:00,15.1,7.4,30.24,ENE,68,0.0,4.7,71,0.00,,SKC,0.00,VWS V14.01,2013-03-02 03:20:00,
2013-03-01 21:40:00,14.2,6.5,30.24,ESE,112,0.0,2.3,71,0.00,,SKC,0.00,VWS V14.01,2013-03-02 03:40:00,
2013-03-01 22:00:00,12.7,5.4,30.24,SSE,158,0.0,0.0,72,0.00,,SKC,0.00,VWS V14.01,2013-03-02 04:00:00,
2013-03-01 22:20:00,11.5,4.2,30.21,SE,135,0.0,0.0,72,0.00,,SKC,0.00,VWS V14.01,2013-03-02 04:20:00,
2013-03-01 22:40:00,10.4,3.2,30.21,ESE,112,0.0,0.0,72,0.00,,SKC,0.00,VWS V14.01,2013-03-02 04:40:00,
2013-03-01 23:00:00,9.3,2.1,30.21,ESE,112,0.0,0.0,72,0.00,,SKC,0.00,VWS V14.01,2013-03-02 05:00:00,
2013-03-01 23:20:00,8.6,1.4,30.21,ESE,112,0.0,0.0,72,0.00,,SKC,0.00,VWS V14.01,2013-03-02 05:20:00,
2013-03-01 23:40:00,7.7,0.6,30.21,ESE,112,0.0,0.0,72,0.00,,SKC,0.00,VWS V14.01,2013-03-02 05:40:00,